createdAt,value
2024-02-11T00:00:39.604Z,8.55
2024-02-11T00:03:06.429Z,8.54
2024-02-11T00:05:33.267Z,8.42
2024-02-11T00:08:00.119Z,8.23
2024-02-11T00:10:26.782Z,8.23
2024-02-11T00:12:53.427Z,8.23
2024-02-11T00:15:20.109Z,8.22
2024-02-11T00:17:48.369Z,8.10
2024-02-11T00:20:17.193Z,8.04
2024-02-11T00:22:46.102Z,7.99
2024-02-11T00:25:13.527Z,7.92
2024-02-11T00:27:44.120Z,7.90
2024-02-11T00:30:11.575Z,7.81
2024-02-11T00:32:39.665Z,7.82
2024-02-11T00:35:06.837Z,7.90
2024-02-11T00:37:33.702Z,7.91
2024-02-11T00:40:00.476Z,7.88
2024-02-11T00:42:29.356Z,7.86
2024-02-11T00:44:56.554Z,7.88
2024-02-11T00:47:24.190Z,7.81
2024-02-11T00:49:51.509Z,7.78
2024-02-11T00:52:18.400Z,7.75
2024-02-11T00:54:45.175Z,7.75
2024-02-11T00:57:12.234Z,7.69
2024-02-11T00:59:42.513Z,7.74
2024-02-11T01:02:11.053Z,7.67
2024-02-11T01:04:40.850Z,7.68
2024-02-11T01:07:08.396Z,7.66
2024-02-11T01:09:35.484Z,7.66
2024-02-11T01:12:02.192Z,7.61
2024-02-11T01:14:31.445Z,7.57
2024-02-11T01:16:58.695Z,7.56
2024-02-11T01:19:25.608Z,7.51
2024-02-11T01:21:55.290Z,7.51
2024-02-11T01:24:22.916Z,7.50
2024-02-11T01:26:50.292Z,7.53
2024-02-11T01:29:19.839Z,7.52
2024-02-11T01:31:48.042Z,7.49
2024-02-11T01:34:17.382Z,7.50
2024-02-11T01:36:47.300Z,7.53
2024-02-11T01:39:15.899Z,7.51
2024-02-11T01:41:42.754Z,7.43
2024-02-11T01:44:09.513Z,7.41
2024-02-11T01:46:37.096Z,7.34
2024-02-11T01:49:06.277Z,7.34
2024-02-11T01:51:34.928Z,7.33
2024-02-11T01:54:04.431Z,7.36
2024-02-11T01:56:32.302Z,7.34
2024-02-11T01:58:59.293Z,7.35
2024-02-11T02:01:27.598Z,7.34
2024-02-11T02:03:54.708Z,7.25
2024-02-11T02:06:24.233Z,7.18
2024-02-11T02:08:51.434Z,7.15
2024-02-11T02:11:18.725Z,7.06
2024-02-11T02:13:45.450Z,7.00
2024-02-11T02:16:12.139Z,7.09
2024-02-11T02:18:38.922Z,7.08
2024-02-11T02:21:06.162Z,7.06
2024-02-11T02:23:32.788Z,7.02
2024-02-11T02:26:09.361Z,7.03
2024-02-11T02:28:37.264Z,7.10
2024-02-11T02:31:07.254Z,7.14
2024-02-11T02:33:38.035Z,7.20
2024-02-11T02:36:05.754Z,7.16
2024-02-11T02:38:34.932Z,7.09
2024-02-11T02:41:01.879Z,7.08
2024-02-11T02:43:29.561Z,7.13
2024-02-11T02:45:56.301Z,7.13
2024-02-11T02:48:24.079Z,7.10
2024-02-11T02:50:50.850Z,7.07
2024-02-11T02:53:17.593Z,7.06
2024-02-11T02:55:44.431Z,7.03
2024-02-11T02:58:16.245Z,7.06
2024-02-11T03:00:43.450Z,7.03
2024-02-11T03:03:10.478Z,7.02
2024-02-11T03:05:42.342Z,6.95
2024-02-11T03:08:09.907Z,6.93
2024-02-11T03:10:37.012Z,6.94
2024-02-11T03:13:03.742Z,6.92
2024-02-11T03:15:31.426Z,6.95
2024-02-11T03:17:59.937Z,6.92
2024-02-11T03:20:29.355Z,6.90
2024-02-11T03:22:56.318Z,6.88
2024-02-11T03:25:23.093Z,6.93
2024-02-11T03:27:55.896Z,6.94
2024-02-11T03:30:23.738Z,6.92
2024-02-11T03:32:51.823Z,6.91
2024-02-11T03:35:18.949Z,6.87
2024-02-11T03:37:45.709Z,6.85
2024-02-11T03:40:14.142Z,6.85
2024-02-11T03:42:40.774Z,6.89
2024-02-11T03:45:10.863Z,6.90
2024-02-11T03:47:37.658Z,6.95
2024-02-11T03:50:06.096Z,7.05
2024-02-11T03:52:36.546Z,7.10
2024-02-11T03:55:12.503Z,7.11
2024-02-11T03:57:39.990Z,7.11
2024-02-11T04:00:12.378Z,7.13
2024-02-11T04:02:39.045Z,7.18
2024-02-11T04:05:06.280Z,7.18
2024-02-11T04:07:33.348Z,7.16
2024-02-11T04:10:18.740Z,7.13
2024-02-11T04:12:45.433Z,7.13
2024-02-11T04:15:12.182Z,7.14
2024-02-11T04:17:38.838Z,7.17
2024-02-11T04:20:10.578Z,7.16
2024-02-11T04:22:38.193Z,7.17
2024-02-11T04:25:06.718Z,7.19
2024-02-11T04:27:33.313Z,7.15
2024-02-11T04:30:00.168Z,7.14
2024-02-11T04:32:29.511Z,7.14
2024-02-11T04:34:56.120Z,7.17
2024-02-11T04:37:23.060Z,7.20
2024-02-11T04:39:49.677Z,7.13
2024-02-11T04:42:20.087Z,7.15
2024-02-11T04:44:49.073Z,7.15
2024-02-11T04:47:16.722Z,7.11
2024-02-11T04:49:43.337Z,7.15
2024-02-11T04:52:09.997Z,7.21
2024-02-11T04:54:36.787Z,7.15
2024-02-11T04:57:05.074Z,7.14
2024-02-11T04:59:31.715Z,7.16
2024-02-11T05:01:58.358Z,7.23
2024-02-11T05:04:26.592Z,7.20
2024-02-11T05:06:54.165Z,7.17
2024-02-11T05:09:20.921Z,7.16
2024-02-11T05:11:47.631Z,7.17
2024-02-11T05:14:14.339Z,7.17
2024-02-11T05:16:42.947Z,7.18
2024-02-11T05:19:09.985Z,7.17
2024-02-11T05:21:36.623Z,7.17
2024-02-11T05:24:03.319Z,7.19
2024-02-11T05:26:30.108Z,7.19
2024-02-11T05:28:58.853Z,7.18
2024-02-11T05:31:26.431Z,7.19
2024-02-11T05:33:53.359Z,7.18
2024-02-11T05:36:20.075Z,7.20
2024-02-11T05:38:48.834Z,7.21
2024-02-11T05:41:16.256Z,7.23
2024-02-11T05:43:43.050Z,7.23
2024-02-11T05:46:10.867Z,7.24
2024-02-11T05:48:39.026Z,7.22
2024-02-11T05:51:05.828Z,7.20
2024-02-11T05:53:34.558Z,7.26
2024-02-11T05:56:02.375Z,7.29
2024-02-11T05:58:29.573Z,7.28
2024-02-11T06:00:56.161Z,7.27
2024-02-11T06:03:23.645Z,7.26
2024-02-11T06:05:50.769Z,7.29
2024-02-11T06:08:18.236Z,7.28
2024-02-11T06:10:45.073Z,7.22
2024-02-11T06:13:11.979Z,7.21
2024-02-11T06:15:42.632Z,7.22
2024-02-11T06:18:11.301Z,7.31
2024-02-11T06:20:40.620Z,7.29
2024-02-11T06:23:08.476Z,7.24
2024-02-11T06:25:35.293Z,7.25
2024-02-11T06:28:03.304Z,7.28
2024-02-11T06:30:30.807Z,7.29
2024-02-11T06:32:58.096Z,7.30
2024-02-11T06:35:25.921Z,7.28
2024-02-11T06:37:53.993Z,7.24
2024-02-11T06:40:23.836Z,7.28
2024-02-11T06:42:54.372Z,7.33
2024-02-11T06:45:22.056Z,7.26
2024-02-11T06:47:49.720Z,7.29
2024-02-11T06:50:17.950Z,7.24
2024-02-11T06:52:46.324Z,7.29
2024-02-11T06:55:17.023Z,7.30
2024-02-11T06:57:47.210Z,7.30
2024-02-11T07:00:17.210Z,7.25
2024-02-11T07:02:44.483Z,7.34
2024-02-11T07:05:11.912Z,7.29
2024-02-11T07:07:40.118Z,7.28
2024-02-11T07:10:08.685Z,7.36
2024-02-11T07:12:35.945Z,7.36
2024-02-11T07:15:06.057Z,7.29
2024-02-11T07:17:34.336Z,7.36
2024-02-11T07:20:01.603Z,7.37
2024-02-11T07:22:28.510Z,7.40
2024-02-11T07:24:55.511Z,7.43
2024-02-11T07:27:22.257Z,7.41
2024-02-11T07:29:49.134Z,7.39
2024-02-11T07:32:16.191Z,7.44
2024-02-11T07:34:43.633Z,7.48
2024-02-11T07:37:11.745Z,7.49
2024-02-11T07:39:39.871Z,7.51
2024-02-11T07:42:07.834Z,7.53
2024-02-11T07:44:34.616Z,7.56
2024-02-11T07:47:01.330Z,7.61
2024-02-11T07:49:28.162Z,7.62
2024-02-11T07:51:57.074Z,7.63
2024-02-11T07:54:25.531Z,7.73
2024-02-11T07:56:53.730Z,7.71
2024-02-11T07:59:21.136Z,7.71
2024-02-11T08:01:48.727Z,7.73
2024-02-11T08:04:18.159Z,7.71
2024-02-11T08:06:45.380Z,7.74
2024-02-11T08:09:12.150Z,7.77
2024-02-11T08:11:38.989Z,7.74
2024-02-11T08:14:06.376Z,7.75
2024-02-11T08:16:33.530Z,7.78
2024-02-11T08:19:01.088Z,7.82
2024-02-11T08:21:27.952Z,7.78
2024-02-11T08:23:56.267Z,7.80
2024-02-11T08:26:24.449Z,7.87
2024-02-11T08:28:51.585Z,7.95
2024-02-11T08:31:19.574Z,7.92
2024-02-11T08:33:48.100Z,7.96
2024-02-11T08:36:15.908Z,7.96
2024-02-11T08:38:43.063Z,7.99
2024-02-11T08:41:11.701Z,8.04
2024-02-11T08:43:39.094Z,8.06
2024-02-11T08:46:06.413Z,8.07
2024-02-11T08:48:34.287Z,8.12
2024-02-11T08:51:02.180Z,8.12
2024-02-11T08:53:34.064Z,8.17
2024-02-11T08:56:01.320Z,8.22
2024-02-11T08:58:29.569Z,8.27
2024-02-11T09:00:57.292Z,8.33
2024-02-11T09:03:24.317Z,8.42
2024-02-11T09:05:51.781Z,8.45
2024-02-11T09:08:18.786Z,8.48
2024-02-11T09:10:45.844Z,8.54
2024-02-11T09:13:12.805Z,8.52
2024-02-11T09:15:40.879Z,8.62
2024-02-11T09:18:08.133Z,8.70
2024-02-11T09:20:37.887Z,8.80
2024-02-11T09:23:06.158Z,8.93
2024-02-11T09:25:33.755Z,8.93
2024-02-11T09:28:01.670Z,8.95
2024-02-11T09:30:28.550Z,8.86
2024-02-11T09:32:55.799Z,8.92
2024-02-11T09:35:24.471Z,8.93
2024-02-11T09:37:52.649Z,8.85
2024-02-11T09:40:20.298Z,8.92
2024-02-11T09:42:48.249Z,8.89
2024-02-11T09:45:19.148Z,8.81
2024-02-11T09:47:53.884Z,8.86
2024-02-11T09:50:23.528Z,8.95
2024-02-11T09:52:51.852Z,8.92
2024-02-11T09:55:22.407Z,8.79
2024-02-11T09:57:50.127Z,8.88
2024-02-11T10:00:19.121Z,8.88
2024-02-11T10:02:46.919Z,8.94
2024-02-11T10:05:17.903Z,9.05
2024-02-11T10:07:46.630Z,9.07
2024-02-11T10:10:16.027Z,9.06
2024-02-11T10:12:43.855Z,9.08
2024-02-11T10:15:19.234Z,9.15
2024-02-11T10:17:46.683Z,9.15
2024-02-11T10:20:14.518Z,9.22
2024-02-11T10:22:42.604Z,9.31
2024-02-11T10:25:10.812Z,9.32
2024-02-11T10:27:38.432Z,9.34
2024-02-11T10:30:14.675Z,9.29
2024-02-11T10:32:42.467Z,9.26
2024-02-11T10:35:13.333Z,9.30
2024-02-11T10:37:43.562Z,9.27
2024-02-11T10:40:13.101Z,9.32
2024-02-11T10:42:42.490Z,9.32
2024-02-11T10:45:12.392Z,9.24
2024-02-11T10:47:40.454Z,9.31
2024-02-11T10:50:08.317Z,9.23
2024-02-11T10:52:43.395Z,9.36
2024-02-11T10:55:14.338Z,9.30
2024-02-11T10:57:49.926Z,9.15
2024-02-11T11:00:22.486Z,9.20
2024-02-11T11:02:59.689Z,9.13
2024-02-11T11:05:31.865Z,9.07
2024-02-11T11:08:02.199Z,9.07
2024-02-11T11:10:39.156Z,9.14
2024-02-11T11:13:06.347Z,9.11
2024-02-11T11:15:34.056Z,9.16
2024-02-11T11:18:03.420Z,9.20
2024-02-11T11:20:34.978Z,9.11
2024-02-11T11:23:02.319Z,9.09
2024-02-11T11:25:33.453Z,9.14
2024-02-11T11:28:31.780Z,9.09
2024-02-11T11:30:58.950Z,9.05
2024-02-11T11:33:32.021Z,9.07
2024-02-11T11:36:01.240Z,9.05
2024-02-11T11:38:28.684Z,8.95
2024-02-11T11:40:56.094Z,8.90
2024-02-11T11:43:25.211Z,8.83
2024-02-11T11:45:58.457Z,8.72
2024-02-11T11:48:26.929Z,8.61
2024-02-11T11:51:01.842Z,8.58
2024-02-11T11:53:30.553Z,8.61
2024-02-11T11:55:59.141Z,8.54
2024-02-11T11:58:27.504Z,8.40
2024-02-11T12:01:02.566Z,8.41
2024-02-11T12:03:30.782Z,8.39
2024-02-11T12:05:58.530Z,8.39
2024-02-11T12:08:29.547Z,8.38
2024-02-11T12:11:01.880Z,8.35
2024-02-11T12:13:32.764Z,8.20
2024-02-11T12:16:01.211Z,8.25
2024-02-11T12:18:28.082Z,8.29
2024-02-11T12:20:56.115Z,8.26
2024-02-11T12:23:24.968Z,8.33
2024-02-11T12:25:55.916Z,8.24
2024-02-11T12:28:26.655Z,8.26
2024-02-11T12:31:14.449Z,8.30
2024-02-11T12:33:47.379Z,8.34
2024-02-11T12:36:16.219Z,8.30
2024-02-11T12:38:45.293Z,8.22
2024-02-11T12:41:13.930Z,8.21
2024-02-11T12:43:43.097Z,8.12
2024-02-11T12:46:13.227Z,8.10
2024-02-11T12:48:42.649Z,8.09
2024-02-11T12:51:11.902Z,8.15
2024-02-11T12:53:40.215Z,8.06
2024-02-11T12:56:08.774Z,8.03
2024-02-11T12:58:35.482Z,7.99
2024-02-11T13:01:04.225Z,8.13
2024-02-11T13:03:31.940Z,8.02
2024-02-11T13:05:58.913Z,8.10
2024-02-11T13:08:27.128Z,8.22
2024-02-11T13:10:54.093Z,8.18
2024-02-11T13:13:20.946Z,8.08
2024-02-11T13:15:47.664Z,8.15
2024-02-11T13:18:18.831Z,8.10
2024-02-11T13:20:46.565Z,8.15
2024-02-11T13:23:14.074Z,8.13
2024-02-11T13:25:42.213Z,8.17
2024-02-11T13:28:13.098Z,8.23
2024-02-11T13:30:39.902Z,8.14
2024-02-11T13:33:11.444Z,8.13
2024-02-11T13:35:39.257Z,8.10
2024-02-11T13:38:10.296Z,8.11
2024-02-11T13:40:37.539Z,8.05
2024-02-11T13:43:04.909Z,8.15
2024-02-11T13:45:32.216Z,8.04
2024-02-11T13:48:01.534Z,7.97
2024-02-11T13:50:31.976Z,7.93
2024-02-11T13:52:59.294Z,8.00
2024-02-11T13:55:26.182Z,8.08
2024-02-11T13:57:52.897Z,8.00
2024-02-11T14:00:23.091Z,7.99
2024-02-11T14:02:50.464Z,7.98
2024-02-11T14:05:17.588Z,7.99
2024-02-11T14:07:45.764Z,8.04
2024-02-11T14:10:12.760Z,7.93
2024-02-11T14:12:42.624Z,8.02
2024-02-11T14:15:12.731Z,7.99
2024-02-11T14:17:48.689Z,7.97
2024-02-11T14:20:17.809Z,7.91
2024-02-11T14:22:45.363Z,7.91
2024-02-11T14:25:16.812Z,7.97
2024-02-11T14:27:50.192Z,7.90
2024-02-11T14:30:20.417Z,7.99
2024-02-11T14:32:52.284Z,8.07
2024-02-11T14:35:22.464Z,7.97
2024-02-11T14:37:53.042Z,7.99
2024-02-11T14:40:21.850Z,7.93
2024-02-11T14:42:48.862Z,7.95
2024-02-11T14:45:16.693Z,7.96
2024-02-11T14:47:44.605Z,7.92
2024-02-11T14:50:11.958Z,7.96
2024-02-11T14:52:39.126Z,7.84
2024-02-11T14:55:07.999Z,7.90
2024-02-11T14:57:35.424Z,7.94
2024-02-11T15:00:03.707Z,8.02
2024-02-11T15:02:31.365Z,8.00
2024-02-11T15:04:58.360Z,7.95
2024-02-11T15:07:27.186Z,7.91
2024-02-11T15:09:57.326Z,7.92
2024-02-11T15:12:27.134Z,7.87
2024-02-11T15:14:54.868Z,7.82
2024-02-11T15:17:22.067Z,7.78
2024-02-11T15:19:49.487Z,7.81
2024-02-11T15:22:17.258Z,7.78
2024-02-11T15:24:46.435Z,7.76
2024-02-11T15:27:15.616Z,7.74
2024-02-11T15:29:44.813Z,7.79
2024-02-11T15:32:17.901Z,7.80
2024-02-11T15:34:44.872Z,7.69
2024-02-11T15:37:12.126Z,7.67
2024-02-11T15:39:39.696Z,7.68
2024-02-11T15:42:08.231Z,7.66
2024-02-11T15:44:38.666Z,7.64
2024-02-11T15:47:06.670Z,7.72
2024-02-11T15:49:35.907Z,7.69
2024-02-11T15:52:02.632Z,7.77
2024-02-11T15:54:29.426Z,7.68
2024-02-11T15:56:58.060Z,7.64
2024-02-11T15:59:25.813Z,7.59
2024-02-11T16:01:52.695Z,7.63
2024-02-11T16:04:19.415Z,7.64
2024-02-11T16:06:46.310Z,7.69
2024-02-11T16:09:13.067Z,7.64
2024-02-11T16:11:39.783Z,7.60
2024-02-11T16:14:08.733Z,7.57
2024-02-11T16:16:35.564Z,7.59
2024-02-11T16:19:02.578Z,7.51
2024-02-11T16:21:29.423Z,7.53
2024-02-11T16:23:56.115Z,7.62
2024-02-11T16:26:23.172Z,7.61
2024-02-11T16:28:49.972Z,7.61
2024-02-11T16:31:16.803Z,7.57
2024-02-11T16:33:45.507Z,7.67
2024-02-11T16:36:16.581Z,7.62
2024-02-11T16:38:43.277Z,7.53
2024-02-11T16:41:10.658Z,7.62
2024-02-11T16:43:37.918Z,7.59
2024-02-11T16:46:04.677Z,7.56
2024-02-11T16:48:35.187Z,7.48
2024-02-11T16:51:02.251Z,7.58
2024-02-11T16:53:29.462Z,7.60
2024-02-11T16:55:56.212Z,7.61
2024-02-11T16:58:23.141Z,7.59
2024-02-11T17:00:51.339Z,7.53
2024-02-11T17:03:18.060Z,7.51
2024-02-11T17:05:45.551Z,7.49
2024-02-11T17:08:12.432Z,7.55
2024-02-11T17:10:39.430Z,7.57
2024-02-11T17:13:06.382Z,7.52
2024-02-11T17:15:34.192Z,7.45
2024-02-11T17:18:01.244Z,7.55
2024-02-11T17:20:28.168Z,7.55
2024-02-11T17:22:55.567Z,7.51
2024-02-11T17:25:22.761Z,7.59
2024-02-11T17:27:51.419Z,7.55
2024-02-11T17:30:18.720Z,7.50
2024-02-11T17:32:51.981Z,7.57
2024-02-11T17:35:31.100Z,7.46
2024-02-11T17:37:59.062Z,7.51
2024-02-11T17:40:28.254Z,7.48
2024-02-11T17:42:55.694Z,7.48
2024-02-11T17:45:22.480Z,7.48
2024-02-11T17:47:53.460Z,7.47
2024-02-11T17:50:20.966Z,7.49
2024-02-11T17:52:48.005Z,7.44
2024-02-11T17:55:15.912Z,7.48
2024-02-11T17:57:44.999Z,7.51
2024-02-11T18:00:12.361Z,7.48
2024-02-11T18:02:42.519Z,7.47
2024-02-11T18:05:13.804Z,7.49
2024-02-11T18:07:53.575Z,7.46
2024-02-11T18:10:20.297Z,7.48
2024-02-11T18:12:48.179Z,7.46
2024-02-11T18:15:19.509Z,7.48
2024-02-11T18:17:46.771Z,7.49
2024-02-11T18:20:15.948Z,7.48
2024-02-11T18:22:45.370Z,7.47
2024-02-11T18:25:23.894Z,7.50
2024-02-11T18:27:56.992Z,7.49
2024-02-11T18:30:23.640Z,7.40
2024-02-11T18:32:50.294Z,7.54
2024-02-11T18:35:23.559Z,7.50
2024-02-11T18:37:51.030Z,7.53
2024-02-11T18:40:19.625Z,7.50
2024-02-11T18:42:46.550Z,7.50
2024-02-11T18:45:13.201Z,7.51
2024-02-11T18:47:40.992Z,7.45
2024-02-11T18:50:10.530Z,7.54
2024-02-11T18:52:39.108Z,7.48
2024-02-11T18:55:07.342Z,7.47
2024-02-11T18:57:34.014Z,7.54
2024-02-11T19:00:00.786Z,7.49
2024-02-11T19:02:27.484Z,7.46
2024-02-11T19:04:54.343Z,7.54
2024-02-11T19:07:21.133Z,7.62
2024-02-11T19:09:48.702Z,7.59
2024-02-11T19:12:15.376Z,7.52
2024-02-11T19:14:42.031Z,7.53
2024-02-11T19:17:12.227Z,7.56
2024-02-11T19:19:39.129Z,7.51
2024-02-11T19:22:13.677Z,7.45
2024-02-11T19:24:44.721Z,7.57
2024-02-11T19:27:12.312Z,7.49
2024-02-11T19:29:40.330Z,7.46
2024-02-11T19:32:07.765Z,7.43
2024-02-11T19:34:37.907Z,7.53
2024-02-11T19:37:07.201Z,7.47
2024-02-11T19:39:34.908Z,7.55
2024-02-11T19:42:01.905Z,7.47
2024-02-11T19:44:31.808Z,7.43
2024-02-11T19:46:59.941Z,7.51
2024-02-11T19:49:26.962Z,7.48
2024-02-11T19:51:53.779Z,7.43
2024-02-11T19:54:20.790Z,7.49
2024-02-11T19:56:47.624Z,7.54
2024-02-11T19:59:15.065Z,7.44
2024-02-11T20:01:41.753Z,7.48
2024-02-11T20:04:08.569Z,7.43
2024-02-11T20:06:35.506Z,7.49
2024-02-11T20:09:02.799Z,7.51
2024-02-11T20:11:30.318Z,7.37
2024-02-11T20:13:57.190Z,7.39
2024-02-11T20:16:25.490Z,7.49
2024-02-11T20:18:52.213Z,7.37
2024-02-11T20:21:20.151Z,7.40
2024-02-11T20:23:47.406Z,7.41
2024-02-11T20:26:17.967Z,7.38
2024-02-11T20:28:47.101Z,7.46
2024-02-11T20:31:15.014Z,7.42
2024-02-11T20:33:42.674Z,7.40
2024-02-11T20:36:12.905Z,7.36
2024-02-11T20:38:39.750Z,7.45
2024-02-11T20:41:08.152Z,7.42
2024-02-11T20:43:34.842Z,7.49
2024-02-11T20:46:01.685Z,7.44
2024-02-11T20:48:29.050Z,7.38
2024-02-11T20:50:57.781Z,7.46
2024-02-11T20:53:25.140Z,7.41
2024-02-11T20:55:54.636Z,7.46
2024-02-11T20:58:21.445Z,7.46
2024-02-11T21:00:48.462Z,7.50
2024-02-11T21:03:17.258Z,7.47
2024-02-11T21:05:47.073Z,7.52
2024-02-11T21:08:15.009Z,7.54
2024-02-11T21:10:41.755Z,7.49
2024-02-11T21:13:12.835Z,7.58
2024-02-11T21:15:41.224Z,7.58
2024-02-11T21:18:08.060Z,7.46
2024-02-11T21:20:34.820Z,7.39
2024-02-11T21:23:01.902Z,7.31
2024-02-11T21:25:29.127Z,7.27
2024-02-11T21:27:58.377Z,7.39
2024-02-11T21:30:28.680Z,7.39
2024-02-11T21:32:59.192Z,7.30
2024-02-11T21:35:27.329Z,7.34
2024-02-11T21:37:54.499Z,7.31
2024-02-11T21:40:22.280Z,7.37
2024-02-11T21:42:51.321Z,7.24
2024-02-11T21:45:19.328Z,7.31
2024-02-11T21:47:46.529Z,7.26
2024-02-11T21:50:14.531Z,7.30
2024-02-11T21:52:43.371Z,7.38
2024-02-11T21:55:11.363Z,7.34
2024-02-11T21:57:39.307Z,7.29
2024-02-11T22:00:12.870Z,7.34
2024-02-11T22:02:41.849Z,7.28
2024-02-11T22:05:09.265Z,7.35
2024-02-11T22:07:36.891Z,7.34
2024-02-11T22:10:09.163Z,7.32
2024-02-11T22:12:36.622Z,7.43
2024-02-11T22:15:05.609Z,7.35
2024-02-11T22:17:33.398Z,7.40
2024-02-11T22:20:02.748Z,7.37
2024-02-11T22:22:29.650Z,7.37
2024-02-11T22:24:57.205Z,7.43
2024-02-11T22:27:24.455Z,7.42
2024-02-11T22:29:52.325Z,7.38
2024-02-11T22:32:19.023Z,7.34
2024-02-11T22:34:45.956Z,7.35
2024-02-11T22:37:14.648Z,7.43
2024-02-11T22:39:41.817Z,7.50
2024-02-11T22:42:11.944Z,7.45
2024-02-11T22:44:42.815Z,7.43
2024-02-11T22:47:09.515Z,7.47
2024-02-11T22:49:37.859Z,7.48
2024-02-11T22:52:06.562Z,7.58
2024-02-11T22:54:33.970Z,7.63
2024-02-11T22:57:00.524Z,7.53
2024-02-11T22:59:27.800Z,7.54
2024-02-11T23:01:54.543Z,7.49
2024-02-11T23:04:22.807Z,7.49
2024-02-11T23:06:49.577Z,7.50
2024-02-11T23:09:17.638Z,7.59
2024-02-11T23:11:45.513Z,7.50
2024-02-11T23:14:12.257Z,7.65
2024-02-11T23:16:39.088Z,7.59
2024-02-11T23:19:08.884Z,7.65
2024-02-11T23:21:38.215Z,7.61
2024-02-11T23:24:05.324Z,7.58
2024-02-11T23:26:32.178Z,7.64
2024-02-11T23:28:58.851Z,7.61
2024-02-11T23:31:25.489Z,7.56
2024-02-11T23:33:52.288Z,7.57
2024-02-11T23:36:18.959Z,7.49
2024-02-11T23:38:46.052Z,7.55
2024-02-11T23:41:13.711Z,7.51
2024-02-11T23:43:41.660Z,7.54
2024-02-11T23:46:08.428Z,7.53
2024-02-11T23:48:38.155Z,7.60
2024-02-11T23:51:05.661Z,7.69
2024-02-11T23:53:33.641Z,7.66
2024-02-11T23:56:01.672Z,7.57
2024-02-11T23:58:34.254Z,7.56
